sensor_id;sensor_type;location;lat;lon;timestamp;P1;durP1;ratioP1;P2;durP2;ratioP2
18172;SDS011;9211;48.818;9.312;2023-06-24T00:00:42;6.28;;;4.50;;
18172;SDS011;9211;48.818;9.312;2023-06-24T00:03:09;6.70;;;4.45;;
18172;SDS011;9211;48.818;9.312;2023-06-24T00:05:37;6.45;;;4.65;;
18172;SDS011;9211;48.818;9.312;2023-06-24T00:08:05;6.05;;;4.50;;
18172;SDS011;9211;48.818;9.312;2023-06-24T00:10:32;7.88;;;4.65;;
18172;SDS011;9211;48.818;9.312;2023-06-24T00:13:00;7.55;;;5.10;;
18172;SDS011;9211;48.818;9.312;2023-06-24T00:15:27;7.27;;;4.77;;
18172;SDS011;9211;48.818;9.312;2023-06-24T00:17:54;7.90;;;4.75;;
18172;SDS011;9211;48.818;9.312;2023-06-24T00:20:31;7.72;;;4.60;;
18172;SDS011;9211;48.818;9.312;2023-06-24T00:22:58;7.65;;;4.80;;
18172;SDS011;9211;48.818;9.312;2023-06-24T00:25:25;7.80;;;4.82;;
18172;SDS011;9211;48.818;9.312;2023-06-24T00:27:52;6.57;;;4.50;;
18172;SDS011;9211;48.818;9.312;2023-06-24T00:30:20;8.45;;;4.65;;
18172;SDS011;9211;48.818;9.312;2023-06-24T00:32:48;9.95;;;4.63;;
18172;SDS011;9211;48.818;9.312;2023-06-24T00:35:15;8.20;;;4.55;;
18172;SDS011;9211;48.818;9.312;2023-06-24T00:37:42;7.60;;;4.50;;
18172;SDS011;9211;48.818;9.312;2023-06-24T00:40:11;9.05;;;4.55;;
18172;SDS011;9211;48.818;9.312;2023-06-24T00:42:41;6.75;;;4.60;;
18172;SDS011;9211;48.818;9.312;2023-06-24T00:45:08;7.32;;;4.10;;
18172;SDS011;9211;48.818;9.312;2023-06-24T00:47:39;7.00;;;4.70;;
18172;SDS011;9211;48.818;9.312;2023-06-24T00:50:07;6.38;;;4.43;;
18172;SDS011;9211;48.818;9.312;2023-06-24T00:52:37;8.30;;;4.43;;
18172;SDS011;9211;48.818;9.312;2023-06-24T00:55:08;6.80;;;4.50;;
18172;SDS011;9211;48.818;9.312;2023-06-24T00:57:37;6.60;;;4.43;;
18172;SDS011;9211;48.818;9.312;2023-06-24T01:00:05;6.53;;;4.35;;
18172;SDS011;9211;48.818;9.312;2023-06-24T01:02:40;8.10;;;4.90;;
18172;SDS011;9211;48.818;9.312;2023-06-24T01:05:07;6.53;;;4.40;;
18172;SDS011;9211;48.818;9.312;2023-06-24T01:07:36;6.35;;;4.25;;
18172;SDS011;9211;48.818;9.312;2023-06-24T01:10:04;6.53;;;4.70;;
18172;SDS011;9211;48.818;9.312;2023-06-24T01:12:33;5.85;;;4.20;;
18172;SDS011;9211;48.818;9.312;2023-06-24T01:15:01;6.27;;;4.40;;
18172;SDS011;9211;48.818;9.312;2023-06-24T01:17:31;6.07;;;4.25;;
18172;SDS011;9211;48.818;9.312;2023-06-24T01:20:07;7.10;;;4.38;;
18172;SDS011;9211;48.818;9.312;2023-06-24T01:22:48;7.15;;;4.50;;
18172;SDS011;9211;48.818;9.312;2023-06-24T01:25:41;6.82;;;4.25;;
18172;SDS011;9211;48.818;9.312;2023-06-24T01:28:20;6.18;;;4.00;;
18172;SDS011;9211;48.818;9.312;2023-06-24T01:31:06;7.47;;;4.40;;
18172;SDS011;9211;48.818;9.312;2023-06-24T01:34:01;7.53;;;4.70;;
18172;SDS011;9211;48.818;9.312;2023-06-24T01:36:34;10.63;;;4.60;;
18172;SDS011;9211;48.818;9.312;2023-06-24T01:39:06;7.72;;;4.40;;
18172;SDS011;9211;48.818;9.312;2023-06-24T01:41:36;6.45;;;4.50;;
18172;SDS011;9211;48.818;9.312;2023-06-24T01:44:07;8.60;;;4.60;;
18172;SDS011;9211;48.818;9.312;2023-06-24T01:46:42;8.38;;;4.60;;
18172;SDS011;9211;48.818;9.312;2023-06-24T01:49:13;6.93;;;4.65;;
18172;SDS011;9211;48.818;9.312;2023-06-24T01:51:42;7.43;;;4.82;;
18172;SDS011;9211;48.818;9.312;2023-06-24T01:54:15;7.68;;;4.50;;
18172;SDS011;9211;48.818;9.312;2023-06-24T01:56:45;6.80;;;4.70;;
18172;SDS011;9211;48.818;9.312;2023-06-24T01:59:14;7.15;;;4.70;;
18172;SDS011;9211;48.818;9.312;2023-06-24T02:01:44;9.57;;;4.68;;
18172;SDS011;9211;48.818;9.312;2023-06-24T02:04:12;8.05;;;4.60;;
18172;SDS011;9211;48.818;9.312;2023-06-24T02:06:41;7.15;;;4.78;;
18172;SDS011;9211;48.818;9.312;2023-06-24T02:09:09;7.70;;;4.90;;
18172;SDS011;9211;48.818;9.312;2023-06-24T02:11:37;7.65;;;5.32;;
18172;SDS011;9211;48.818;9.312;2023-06-24T02:14:06;8.43;;;5.47;;
18172;SDS011;9211;48.818;9.312;2023-06-24T02:16:35;7.57;;;5.10;;
18172;SDS011;9211;48.818;9.312;2023-06-24T02:19:04;8.20;;;5.60;;
18172;SDS011;9211;48.818;9.312;2023-06-24T02:21:34;7.30;;;5.35;;
18172;SDS011;9211;48.818;9.312;2023-06-24T02:24:02;8.10;;;5.30;;
18172;SDS011;9211;48.818;9.312;2023-06-24T02:26:31;8.05;;;5.38;;
18172;SDS011;9211;48.818;9.312;2023-06-24T02:28:59;8.55;;;5.78;;
18172;SDS011;9211;48.818;9.312;2023-06-24T02:31:26;8.87;;;5.87;;
18172;SDS011;9211;48.818;9.312;2023-06-24T02:33:54;8.38;;;5.75;;
18172;SDS011;9211;48.818;9.312;2023-06-24T02:36:22;9.25;;;5.63;;
18172;SDS011;9211;48.818;9.312;2023-06-24T02:38:49;8.23;;;5.50;;
18172;SDS011;9211;48.818;9.312;2023-06-24T02:41:16;9.35;;;5.50;;
18172;SDS011;9211;48.818;9.312;2023-06-24T02:43:43;9.85;;;5.72;;
18172;SDS011;9211;48.818;9.312;2023-06-24T02:46:10;10.15;;;5.85;;
18172;SDS011;9211;48.818;9.312;2023-06-24T02:48:37;8.98;;;5.40;;
18172;SDS011;9211;48.818;9.312;2023-06-24T02:51:06;7.65;;;5.13;;
18172;SDS011;9211;48.818;9.312;2023-06-24T02:53:36;9.65;;;6.20;;
18172;SDS011;9211;48.818;9.312;2023-06-24T02:56:05;9.67;;;5.90;;
18172;SDS011;9211;48.818;9.312;2023-06-24T02:58:35;10.48;;;6.45;;
18172;SDS011;9211;48.818;9.312;2023-06-24T03:01:11;10.82;;;6.30;;
18172;SDS011;9211;48.818;9.312;2023-06-24T03:03:50;10.68;;;6.88;;
18172;SDS011;9211;48.818;9.312;2023-06-24T03:06:19;11.13;;;6.73;;
18172;SDS011;9211;48.818;9.312;2023-06-24T03:08:49;11.20;;;6.68;;
18172;SDS011;9211;48.818;9.312;2023-06-24T03:11:20;11.70;;;6.70;;
18172;SDS011;9211;48.818;9.312;2023-06-24T03:13:48;9.85;;;6.60;;
18172;SDS011;9211;48.818;9.312;2023-06-24T03:16:19;11.33;;;6.50;;
18172;SDS011;9211;48.818;9.312;2023-06-24T03:18:57;10.73;;;6.93;;
18172;SDS011;9211;48.818;9.312;2023-06-24T03:21:24;12.20;;;7.30;;
18172;SDS011;9211;48.818;9.312;2023-06-24T03:23:56;11.52;;;6.90;;
18172;SDS011;9211;48.818;9.312;2023-06-24T03:26:30;11.03;;;7.43;;
18172;SDS011;9211;48.818;9.312;2023-06-24T03:28:58;12.80;;;7.60;;
18172;SDS011;9211;48.818;9.312;2023-06-24T03:31:26;12.98;;;6.97;;
18172;SDS011;9211;48.818;9.312;2023-06-24T03:33:53;11.77;;;7.20;;
18172;SDS011;9211;48.818;9.312;2023-06-24T03:36:20;11.10;;;6.75;;
18172;SDS011;9211;48.818;9.312;2023-06-24T03:38:49;9.40;;;6.33;;
18172;SDS011;9211;48.818;9.312;2023-06-24T03:41:18;11.48;;;6.80;;
18172;SDS011;9211;48.818;9.312;2023-06-24T03:43:46;10.95;;;6.57;;
18172;SDS011;9211;48.818;9.312;2023-06-24T03:46:13;12.45;;;6.70;;
18172;SDS011;9211;48.818;9.312;2023-06-24T03:48:39;11.35;;;6.90;;
18172;SDS011;9211;48.818;9.312;2023-06-24T03:51:07;10.43;;;6.50;;
18172;SDS011;9211;48.818;9.312;2023-06-24T03:53:36;11.00;;;6.95;;
18172;SDS011;9211;48.818;9.312;2023-06-24T03:56:04;9.98;;;6.47;;
18172;SDS011;9211;48.818;9.312;2023-06-24T03:58:32;11.40;;;7.05;;
18172;SDS011;9211;48.818;9.312;2023-06-24T04:01:00;11.27;;;6.40;;
18172;SDS011;9211;48.818;9.312;2023-06-24T04:03:28;11.32;;;6.60;;
18172;SDS011;9211;48.818;9.312;2023-06-24T04:05:59;10.27;;;6.40;;
18172;SDS011;9211;48.818;9.312;2023-06-24T04:08:27;10.53;;;6.40;;
18172;SDS011;9211;48.818;9.312;2023-06-24T04:10:54;9.77;;;6.25;;
18172;SDS011;9211;48.818;9.312;2023-06-24T04:13:21;8.73;;;6.15;;
18172;SDS011;9211;48.818;9.312;2023-06-24T04:15:49;10.00;;;6.10;;
18172;SDS011;9211;48.818;9.312;2023-06-24T04:18:16;9.90;;;6.03;;
18172;SDS011;9211;48.818;9.312;2023-06-24T04:20:44;12.70;;;6.47;;
18172;SDS011;9211;48.818;9.312;2023-06-24T04:23:12;8.52;;;6.00;;
18172;SDS011;9211;48.818;9.312;2023-06-24T04:25:40;8.25;;;5.57;;
18172;SDS011;9211;48.818;9.312;2023-06-24T04:28:07;8.98;;;5.63;;
18172;SDS011;9211;48.818;9.312;2023-06-24T04:30:34;8.57;;;5.30;;
18172;SDS011;9211;48.818;9.312;2023-06-24T04:33:05;8.02;;;5.47;;
18172;SDS011;9211;48.818;9.312;2023-06-24T04:35:32;7.80;;;5.18;;
18172;SDS011;9211;48.818;9.312;2023-06-24T04:37:59;10.02;;;5.30;;
18172;SDS011;9211;48.818;9.312;2023-06-24T04:40:26;7.18;;;5.00;;
18172;SDS011;9211;48.818;9.312;2023-06-24T04:42:53;7.20;;;5.07;;
18172;SDS011;9211;48.818;9.312;2023-06-24T04:45:20;7.53;;;5.10;;
18172;SDS011;9211;48.818;9.312;2023-06-24T04:47:47;7.00;;;5.00;;
18172;SDS011;9211;48.818;9.312;2023-06-24T04:50:15;7.53;;;4.85;;
18172;SDS011;9211;48.818;9.312;2023-06-24T04:52:42;9.38;;;4.97;;
18172;SDS011;9211;48.818;9.312;2023-06-24T04:55:10;9.07;;;5.20;;
18172;SDS011;9211;48.818;9.312;2023-06-24T04:57:36;9.88;;;5.03;;
18172;SDS011;9211;48.818;9.312;2023-06-24T05:00:04;7.40;;;5.00;;
18172;SDS011;9211;48.818;9.312;2023-06-24T05:02:32;7.95;;;5.18;;
18172;SDS011;9211;48.818;9.312;2023-06-24T05:04:59;7.53;;;4.77;;
18172;SDS011;9211;48.818;9.312;2023-06-24T05:07:27;8.40;;;4.75;;
18172;SDS011;9211;48.818;9.312;2023-06-24T05:09:55;6.70;;;4.70;;
18172;SDS011;9211;48.818;9.312;2023-06-24T05:12:22;8.50;;;4.90;;
18172;SDS011;9211;48.818;9.312;2023-06-24T05:14:49;7.40;;;5.03;;
18172;SDS011;9211;48.818;9.312;2023-06-24T05:17:17;7.10;;;4.93;;
18172;SDS011;9211;48.818;9.312;2023-06-24T05:19:44;6.78;;;4.60;;
18172;SDS011;9211;48.818;9.312;2023-06-24T05:22:11;7.30;;;5.00;;
18172;SDS011;9211;48.818;9.312;2023-06-24T05:24:40;7.30;;;5.10;;
18172;SDS011;9211;48.818;9.312;2023-06-24T05:27:07;6.97;;;4.90;;
18172;SDS011;9211;48.818;9.312;2023-06-24T05:29:34;9.90;;;5.00;;
18172;SDS011;9211;48.818;9.312;2023-06-24T05:32:01;6.93;;;4.72;;
18172;SDS011;9211;48.818;9.312;2023-06-24T05:34:29;7.65;;;5.03;;
18172;SDS011;9211;48.818;9.312;2023-06-24T05:36:56;10.20;;;5.38;;
18172;SDS011;9211;48.818;9.312;2023-06-24T05:39:23;7.72;;;5.20;;
18172;SDS011;9211;48.818;9.312;2023-06-24T05:41:52;8.53;;;5.07;;
18172;SDS011;9211;48.818;9.312;2023-06-24T05:44:19;7.75;;;5.10;;
18172;SDS011;9211;48.818;9.312;2023-06-24T05:46:47;7.60;;;4.70;;
18172;SDS011;9211;48.818;9.312;2023-06-24T05:49:14;7.63;;;5.07;;
18172;SDS011;9211;48.818;9.312;2023-06-24T05:51:41;8.55;;;5.10;;
18172;SDS011;9211;48.818;9.312;2023-06-24T05:54:08;8.23;;;5.18;;
18172;SDS011;9211;48.818;9.312;2023-06-24T05:56:35;7.10;;;5.20;;
18172;SDS011;9211;48.818;9.312;2023-06-24T05:59:04;7.57;;;4.82;;
18172;SDS011;9211;48.818;9.312;2023-06-24T06:01:31;7.05;;;4.90;;
18172;SDS011;9211;48.818;9.312;2023-06-24T06:03:58;8.82;;;4.75;;
18172;SDS011;9211;48.818;9.312;2023-06-24T06:06:25;7.65;;;4.93;;
18172;SDS011;9211;48.818;9.312;2023-06-24T06:08:52;7.25;;;4.63;;
18172;SDS011;9211;48.818;9.312;2023-06-24T06:11:19;6.90;;;4.30;;
18172;SDS011;9211;48.818;9.312;2023-06-24T06:13:46;6.78;;;4.57;;
18172;SDS011;9211;48.818;9.312;2023-06-24T06:16:15;7.13;;;4.60;;
18172;SDS011;9211;48.818;9.312;2023-06-24T06:18:41;7.55;;;4.68;;
18172;SDS011;9211;48.818;9.312;2023-06-24T06:21:08;7.43;;;4.63;;
18172;SDS011;9211;48.818;9.312;2023-06-24T06:23:35;7.63;;;4.63;;
18172;SDS011;9211;48.818;9.312;2023-06-24T06:26:02;7.82;;;4.70;;
18172;SDS011;9211;48.818;9.312;2023-06-24T06:28:29;6.68;;;4.40;;
18172;SDS011;9211;48.818;9.312;2023-06-24T06:30:56;6.63;;;4.60;;
18172;SDS011;9211;48.818;9.312;2023-06-24T06:33:25;6.50;;;4.20;;
18172;SDS011;9211;48.818;9.312;2023-06-24T06:35:51;6.47;;;4.60;;
18172;SDS011;9211;48.818;9.312;2023-06-24T06:38:19;7.10;;;4.72;;
18172;SDS011;9211;48.818;9.312;2023-06-24T06:40:46;6.72;;;4.40;;
18172;SDS011;9211;48.818;9.312;2023-06-24T06:43:13;7.00;;;4.65;;
18172;SDS011;9211;48.818;9.312;2023-06-24T06:45:40;7.93;;;4.43;;
18172;SDS011;9211;48.818;9.312;2023-06-24T06:48:07;6.72;;;4.43;;
18172;SDS011;9211;48.818;9.312;2023-06-24T06:50:35;6.35;;;4.40;;
18172;SDS011;9211;48.818;9.312;2023-06-24T06:53:02;6.03;;;4.40;;
18172;SDS011;9211;48.818;9.312;2023-06-24T06:55:29;5.40;;;3.95;;
18172;SDS011;9211;48.818;9.312;2023-06-24T06:57:56;6.53;;;4.20;;
18172;SDS011;9211;48.818;9.312;2023-06-24T07:00:23;9.45;;;4.55;;
18172;SDS011;9211;48.818;9.312;2023-06-24T07:02:50;5.57;;;3.88;;
18172;SDS011;9211;48.818;9.312;2023-06-24T07:05:17;5.80;;;3.90;;
18172;SDS011;9211;48.818;9.312;2023-06-24T07:07:46;5.72;;;3.90;;
18172;SDS011;9211;48.818;9.312;2023-06-24T07:10:15;9.40;;;4.28;;
18172;SDS011;9211;48.818;9.312;2023-06-24T07:12:42;6.30;;;4.40;;
18172;SDS011;9211;48.818;9.312;2023-06-24T07:15:09;7.00;;;4.00;;
18172;SDS011;9211;48.818;9.312;2023-06-24T07:17:36;6.80;;;4.25;;
18172;SDS011;9211;48.818;9.312;2023-06-24T07:20:04;6.32;;;4.00;;
18172;SDS011;9211;48.818;9.312;2023-06-24T07:22:31;6.43;;;4.10;;
18172;SDS011;9211;48.818;9.312;2023-06-24T07:25:00;5.68;;;3.90;;
18172;SDS011;9211;48.818;9.312;2023-06-24T07:27:27;5.87;;;3.77;;
18172;SDS011;9211;48.818;9.312;2023-06-24T07:29:53;5.63;;;3.83;;
18172;SDS011;9211;48.818;9.312;2023-06-24T07:32:20;5.45;;;3.83;;
18172;SDS011;9211;48.818;9.312;2023-06-24T07:34:47;6.10;;;3.63;;
18172;SDS011;9211;48.818;9.312;2023-06-24T07:37:14;5.10;;;3.40;;
18172;SDS011;9211;48.818;9.312;2023-06-24T07:39:41;5.95;;;3.50;;
18172;SDS011;9211;48.818;9.312;2023-06-24T07:42:09;4.60;;;3.33;;
18172;SDS011;9211;48.818;9.312;2023-06-24T07:44:36;4.13;;;3.10;;
18172;SDS011;9211;48.818;9.312;2023-06-24T07:47:04;5.18;;;3.28;;
18172;SDS011;9211;48.818;9.312;2023-06-24T07:49:32;4.38;;;3.20;;
18172;SDS011;9211;48.818;9.312;2023-06-24T07:51:59;4.85;;;3.20;;
18172;SDS011;9211;48.818;9.312;2023-06-24T07:54:26;4.60;;;3.40;;
18172;SDS011;9211;48.818;9.312;2023-06-24T07:56:53;5.70;;;3.70;;
18172;SDS011;9211;48.818;9.312;2023-06-24T07:59:21;4.05;;;3.08;;
18172;SDS011;9211;48.818;9.312;2023-06-24T08:01:49;4.45;;;3.40;;
18172;SDS011;9211;48.818;9.312;2023-06-24T08:04:16;4.83;;;3.43;;
18172;SDS011;9211;48.818;9.312;2023-06-24T08:06:43;5.18;;;3.33;;
18172;SDS011;9211;48.818;9.312;2023-06-24T08:09:10;4.90;;;3.50;;
18172;SDS011;9211;48.818;9.312;2023-06-24T08:11:37;4.40;;;3.20;;
18172;SDS011;9211;48.818;9.312;2023-06-24T08:14:05;5.13;;;3.20;;
18172;SDS011;9211;48.818;9.312;2023-06-24T08:16:33;6.88;;;3.42;;
18172;SDS011;9211;48.818;9.312;2023-06-24T08:19:00;4.15;;;3.28;;
18172;SDS011;9211;48.818;9.312;2023-06-24T08:21:27;5.28;;;3.30;;
18172;SDS011;9211;48.818;9.312;2023-06-24T08:23:54;5.53;;;3.50;;
18172;SDS011;9211;48.818;9.312;2023-06-24T08:26:21;4.85;;;3.40;;
18172;SDS011;9211;48.818;9.312;2023-06-24T08:28:49;5.43;;;3.53;;
18172;SDS011;9211;48.818;9.312;2023-06-24T08:31:36;6.17;;;3.30;;
18172;SDS011;9211;48.818;9.312;2023-06-24T08:34:03;6.18;;;3.47;;
18172;SDS011;9211;48.818;9.312;2023-06-24T08:36:31;5.15;;;3.50;;
18172;SDS011;9211;48.818;9.312;2023-06-24T08:38:58;5.63;;;3.30;;
18172;SDS011;9211;48.818;9.312;2023-06-24T08:41:25;5.00;;;3.47;;
18172;SDS011;9211;48.818;9.312;2023-06-24T08:43:52;4.85;;;3.35;;
18172;SDS011;9211;48.818;9.312;2023-06-24T08:46:20;4.57;;;3.30;;
18172;SDS011;9211;48.818;9.312;2023-06-24T08:48:49;5.53;;;3.20;;
18172;SDS011;9211;48.818;9.312;2023-06-24T08:51:26;5.87;;;3.40;;
18172;SDS011;9211;48.818;9.312;2023-06-24T08:53:57;5.13;;;3.13;;
18172;SDS011;9211;48.818;9.312;2023-06-24T08:56:25;4.70;;;3.10;;
18172;SDS011;9211;48.818;9.312;2023-06-24T08:58:53;4.73;;;3.17;;
18172;SDS011;9211;48.818;9.312;2023-06-24T09:01:20;5.47;;;3.40;;
18172;SDS011;9211;48.818;9.312;2023-06-24T09:03:49;3.78;;;2.85;;
18172;SDS011;9211;48.818;9.312;2023-06-24T09:06:16;4.00;;;2.90;;
18172;SDS011;9211;48.818;9.312;2023-06-24T09:08:51;4.68;;;3.17;;
18172;SDS011;9211;48.818;9.312;2023-06-24T09:11:21;3.90;;;3.08;;
18172;SDS011;9211;48.818;9.312;2023-06-24T09:13:51;4.20;;;3.00;;
18172;SDS011;9211;48.818;9.312;2023-06-24T09:16:21;4.43;;;3.08;;
18172;SDS011;9211;48.818;9.312;2023-06-24T09:18:49;5.03;;;3.13;;
18172;SDS011;9211;48.818;9.312;2023-06-24T09:21:23;4.37;;;2.73;;
18172;SDS011;9211;48.818;9.312;2023-06-24T09:23:54;4.22;;;3.10;;
18172;SDS011;9211;48.818;9.312;2023-06-24T09:26:22;3.83;;;3.00;;
18172;SDS011;9211;48.818;9.312;2023-06-24T09:28:50;4.75;;;3.10;;
18172;SDS011;9211;48.818;9.312;2023-06-24T09:31:20;4.13;;;2.70;;
18172;SDS011;9211;48.818;9.312;2023-06-24T09:33:49;5.20;;;3.00;;
18172;SDS011;9211;48.818;9.312;2023-06-24T09:36:16;5.18;;;2.65;;
18172;SDS011;9211;48.818;9.312;2023-06-24T09:38:43;4.15;;;2.83;;
18172;SDS011;9211;48.818;9.312;2023-06-24T09:41:10;4.03;;;2.70;;
18172;SDS011;9211;48.818;9.312;2023-06-24T09:43:37;4.00;;;2.80;;
18172;SDS011;9211;48.818;9.312;2023-06-24T09:46:06;3.80;;;2.60;;
18172;SDS011;9211;48.818;9.312;2023-06-24T09:48:33;4.40;;;2.60;;
18172;SDS011;9211;48.818;9.312;2023-06-24T09:51:03;4.47;;;2.60;;
18172;SDS011;9211;48.818;9.312;2023-06-24T09:53:31;3.67;;;2.67;;
18172;SDS011;9211;48.818;9.312;2023-06-24T09:55:59;3.40;;;2.50;;
18172;SDS011;9211;48.818;9.312;2023-06-24T09:58:28;4.18;;;2.72;;
18172;SDS011;9211;48.818;9.312;2023-06-24T10:00:59;4.30;;;2.50;;
18172;SDS011;9211;48.818;9.312;2023-06-24T10:03:29;3.47;;;2.60;;
18172;SDS011;9211;48.818;9.312;2023-06-24T10:05:58;4.63;;;2.70;;
18172;SDS011;9211;48.818;9.312;2023-06-24T10:08:27;3.88;;;2.80;;
18172;SDS011;9211;48.818;9.312;2023-06-24T10:10:54;4.18;;;2.60;;
18172;SDS011;9211;48.818;9.312;2023-06-24T10:13:21;4.10;;;2.70;;
18172;SDS011;9211;48.818;9.312;2023-06-24T10:15:48;4.32;;;2.80;;
18172;SDS011;9211;48.818;9.312;2023-06-24T10:18:35;3.90;;;2.40;;
18172;SDS011;9211;48.818;9.312;2023-06-24T10:21:03;3.45;;;2.80;;
18172;SDS011;9211;48.818;9.312;2023-06-24T10:23:33;4.32;;;2.75;;
18172;SDS011;9211;48.818;9.312;2023-06-24T10:26:07;4.00;;;2.83;;
18172;SDS011;9211;48.818;9.312;2023-06-24T10:31:50;4.10;;;2.60;;
18172;SDS011;9211;48.818;9.312;2023-06-24T10:34:26;3.55;;;2.60;;
18172;SDS011;9211;48.818;9.312;2023-06-24T10:36:55;4.07;;;2.60;;
18172;SDS011;9211;48.818;9.312;2023-06-24T10:39:44;4.00;;;2.70;;
18172;SDS011;9211;48.818;9.312;2023-06-24T10:42:29;4.63;;;2.75;;
18172;SDS011;9211;48.818;9.312;2023-06-24T10:45:12;4.30;;;2.80;;
18172;SDS011;9211;48.818;9.312;2023-06-24T10:47:41;4.00;;;2.95;;
18172;SDS011;9211;48.818;9.312;2023-06-24T10:50:10;4.45;;;2.90;;
18172;SDS011;9211;48.818;9.312;2023-06-24T10:52:38;3.85;;;2.80;;
18172;SDS011;9211;48.818;9.312;2023-06-24T10:55:08;3.42;;;2.80;;
18172;SDS011;9211;48.818;9.312;2023-06-24T10:57:35;4.00;;;2.63;;
18172;SDS011;9211;48.818;9.312;2023-06-24T11:00:03;4.18;;;2.80;;
18172;SDS011;9211;48.818;9.312;2023-06-24T11:02:30;3.75;;;2.72;;
18172;SDS011;9211;48.818;9.312;2023-06-24T11:04:57;6.30;;;2.60;;
18172;SDS011;9211;48.818;9.312;2023-06-24T11:07:26;3.63;;;2.70;;
18172;SDS011;9211;48.818;9.312;2023-06-24T11:09:55;3.30;;;2.35;;
18172;SDS011;9211;48.818;9.312;2023-06-24T11:12:25;3.65;;;2.70;;
18172;SDS011;9211;48.818;9.312;2023-06-24T11:14:55;4.88;;;3.00;;
18172;SDS011;9211;48.818;9.312;2023-06-24T11:17:23;5.35;;;2.60;;
18172;SDS011;9211;48.818;9.312;2023-06-24T11:19:51;2.95;;;2.50;;
18172;SDS011;9211;48.818;9.312;2023-06-24T11:22:19;3.47;;;2.60;;
18172;SDS011;9211;48.818;9.312;2023-06-24T11:24:46;3.63;;;2.53;;
18172;SDS011;9211;48.818;9.312;2023-06-24T11:27:13;3.40;;;2.47;;
18172;SDS011;9211;48.818;9.312;2023-06-24T11:29:41;3.72;;;2.75;;
18172;SDS011;9211;48.818;9.312;2023-06-24T11:32:08;4.07;;;2.58;;
18172;SDS011;9211;48.818;9.312;2023-06-24T11:34:35;3.30;;;2.40;;
18172;SDS011;9211;48.818;9.312;2023-06-24T11:37:10;3.50;;;2.53;;
18172;SDS011;9211;48.818;9.312;2023-06-24T11:39:37;3.53;;;2.47;;
18172;SDS011;9211;48.818;9.312;2023-06-24T11:42:05;3.60;;;2.50;;
18172;SDS011;9211;48.818;9.312;2023-06-24T11:44:34;4.57;;;2.50;;
18172;SDS011;9211;48.818;9.312;2023-06-24T11:47:06;3.43;;;2.57;;
18172;SDS011;9211;48.818;9.312;2023-06-24T11:49:47;3.75;;;2.67;;
18172;SDS011;9211;48.818;9.312;2023-06-24T11:52:15;3.30;;;2.50;;
18172;SDS011;9211;48.818;9.312;2023-06-24T11:54:41;4.00;;;2.60;;
18172;SDS011;9211;48.818;9.312;2023-06-24T11:57:09;3.90;;;2.45;;
18172;SDS011;9211;48.818;9.312;2023-06-24T11:59:38;3.50;;;2.30;;
18172;SDS011;9211;48.818;9.312;2023-06-24T12:02:06;3.33;;;2.47;;
18172;SDS011;9211;48.818;9.312;2023-06-24T12:04:39;3.83;;;2.60;;
18172;SDS011;9211;48.818;9.312;2023-06-24T12:07:10;3.15;;;2.40;;
18172;SDS011;9211;48.818;9.312;2023-06-24T12:09:37;3.80;;;2.67;;
18172;SDS011;9211;48.818;9.312;2023-06-24T12:12:05;3.25;;;2.50;;
18172;SDS011;9211;48.818;9.312;2023-06-24T12:14:32;2.85;;;2.30;;
18172;SDS011;9211;48.818;9.312;2023-06-24T12:16:59;3.90;;;2.72;;
18172;SDS011;9211;48.818;9.312;2023-06-24T12:19:28;3.80;;;2.60;;
18172;SDS011;9211;48.818;9.312;2023-06-24T12:21:55;4.20;;;2.60;;
18172;SDS011;9211;48.818;9.312;2023-06-24T12:24:22;2.72;;;2.35;;
18172;SDS011;9211;48.818;9.312;2023-06-24T12:26:49;3.30;;;2.33;;
18172;SDS011;9211;48.818;9.312;2023-06-24T12:29:16;4.05;;;2.40;;
18172;SDS011;9211;48.818;9.312;2023-06-24T12:31:43;3.47;;;2.60;;
18172;SDS011;9211;48.818;9.312;2023-06-24T12:34:10;3.45;;;2.38;;
18172;SDS011;9211;48.818;9.312;2023-06-24T12:36:38;3.75;;;2.60;;
18172;SDS011;9211;48.818;9.312;2023-06-24T12:39:05;3.53;;;2.50;;
18172;SDS011;9211;48.818;9.312;2023-06-24T12:41:32;3.17;;;2.50;;
18172;SDS011;9211;48.818;9.312;2023-06-24T12:43:59;3.40;;;2.60;;
18172;SDS011;9211;48.818;9.312;2023-06-24T12:46:28;3.50;;;2.47;;
18172;SDS011;9211;48.818;9.312;2023-06-24T12:48:55;3.53;;;2.60;;
18172;SDS011;9211;48.818;9.312;2023-06-24T12:51:22;3.45;;;2.53;;
18172;SDS011;9211;48.818;9.312;2023-06-24T12:53:50;3.38;;;2.40;;
18172;SDS011;9211;48.818;9.312;2023-06-24T12:56:17;4.13;;;2.63;;
18172;SDS011;9211;48.818;9.312;2023-06-24T12:58:44;3.70;;;2.55;;
18172;SDS011;9211;48.818;9.312;2023-06-24T13:01:11;4.32;;;2.65;;
18172;SDS011;9211;48.818;9.312;2023-06-24T13:03:38;3.00;;;2.40;;
18172;SDS011;9211;48.818;9.312;2023-06-24T13:06:05;3.92;;;2.35;;
18172;SDS011;9211;48.818;9.312;2023-06-24T13:08:32;3.97;;;2.28;;
18172;SDS011;9211;48.818;9.312;2023-06-24T13:11:00;3.28;;;2.40;;
18172;SDS011;9211;48.818;9.312;2023-06-24T13:13:27;3.47;;;2.50;;
18172;SDS011;9211;48.818;9.312;2023-06-24T13:15:54;3.13;;;2.47;;
18172;SDS011;9211;48.818;9.312;2023-06-24T13:18:21;3.80;;;2.60;;
18172;SDS011;9211;48.818;9.312;2023-06-24T13:20:48;3.17;;;2.47;;
18172;SDS011;9211;48.818;9.312;2023-06-24T13:23:15;5.40;;;2.60;;
18172;SDS011;9211;48.818;9.312;2023-06-24T13:25:42;4.07;;;2.63;;
18172;SDS011;9211;48.818;9.312;2023-06-24T13:28:10;4.53;;;2.65;;
18172;SDS011;9211;48.818;9.312;2023-06-24T13:30:37;3.88;;;2.67;;
18172;SDS011;9211;48.818;9.312;2023-06-24T13:33:04;4.30;;;2.60;;
18172;SDS011;9211;48.818;9.312;2023-06-24T13:35:31;3.30;;;2.67;;
18172;SDS011;9211;48.818;9.312;2023-06-24T13:37:58;3.42;;;2.50;;
18172;SDS011;9211;48.818;9.312;2023-06-24T13:40:25;4.03;;;2.60;;
18172;SDS011;9211;48.818;9.312;2023-06-24T13:42:52;5.43;;;2.83;;
18172;SDS011;9211;48.818;9.312;2023-06-24T13:45:20;4.50;;;2.50;;
18172;SDS011;9211;48.818;9.312;2023-06-24T13:47:47;3.55;;;2.70;;
18172;SDS011;9211;48.818;9.312;2023-06-24T13:50:14;4.65;;;2.67;;
18172;SDS011;9211;48.818;9.312;2023-06-24T13:52:41;3.40;;;2.58;;
18172;SDS011;9211;48.818;9.312;2023-06-24T13:55:08;2.90;;;2.33;;
18172;SDS011;9211;48.818;9.312;2023-06-24T13:57:35;4.43;;;2.60;;
18172;SDS011;9211;48.818;9.312;2023-06-24T14:00:02;3.30;;;2.47;;
18172;SDS011;9211;48.818;9.312;2023-06-24T14:02:39;3.58;;;2.88;;
18172;SDS011;9211;48.818;9.312;2023-06-24T14:05:06;3.40;;;2.60;;
18172;SDS011;9211;48.818;9.312;2023-06-24T14:07:34;3.58;;;2.67;;
18172;SDS011;9211;48.818;9.312;2023-06-24T14:10:00;4.38;;;2.58;;
18172;SDS011;9211;48.818;9.312;2023-06-24T14:12:28;3.40;;;2.53;;
18172;SDS011;9211;48.818;9.312;2023-06-24T14:14:55;3.30;;;2.53;;
18172;SDS011;9211;48.818;9.312;2023-06-24T14:17:22;3.25;;;2.47;;
18172;SDS011;9211;48.818;9.312;2023-06-24T14:19:50;4.25;;;2.58;;
18172;SDS011;9211;48.818;9.312;2023-06-24T14:22:17;3.03;;;2.40;;
18172;SDS011;9211;48.818;9.312;2023-06-24T14:24:44;3.80;;;2.40;;
18172;SDS011;9211;48.818;9.312;2023-06-24T14:27:12;3.75;;;2.63;;
18172;SDS011;9211;48.818;9.312;2023-06-24T14:29:39;3.53;;;2.50;;
18172;SDS011;9211;48.818;9.312;2023-06-24T14:32:06;3.78;;;2.60;;
18172;SDS011;9211;48.818;9.312;2023-06-24T14:34:33;3.38;;;2.50;;
18172;SDS011;9211;48.818;9.312;2023-06-24T14:37:02;2.95;;;2.30;;
18172;SDS011;9211;48.818;9.312;2023-06-24T14:39:29;3.00;;;2.35;;
18172;SDS011;9211;48.818;9.312;2023-06-24T14:41:56;3.08;;;2.50;;
18172;SDS011;9211;48.818;9.312;2023-06-24T14:44:23;3.50;;;2.35;;
18172;SDS011;9211;48.818;9.312;2023-06-24T14:46:50;3.38;;;2.50;;
18172;SDS011;9211;48.818;9.312;2023-06-24T14:49:17;3.10;;;2.35;;
18172;SDS011;9211;48.818;9.312;2023-06-24T14:51:44;3.35;;;2.60;;
18172;SDS011;9211;48.818;9.312;2023-06-24T14:54:12;3.13;;;2.53;;
18172;SDS011;9211;48.818;9.312;2023-06-24T14:56:39;4.25;;;2.42;;
18172;SDS011;9211;48.818;9.312;2023-06-24T14:59:06;3.22;;;2.22;;
18172;SDS011;9211;48.818;9.312;2023-06-24T15:01:33;2.90;;;2.35;;
18172;SDS011;9211;48.818;9.312;2023-06-24T15:04:00;4.20;;;2.33;;
18172;SDS011;9211;48.818;9.312;2023-06-24T15:06:27;3.97;;;2.35;;
18172;SDS011;9211;48.818;9.312;2023-06-24T15:08:54;3.17;;;2.30;;
18172;SDS011;9211;48.818;9.312;2023-06-24T15:11:22;2.85;;;2.15;;